Wymondham, United Kingdom
Current Conditions -  °F | °C
As of 12:50 AM on Tuesday 25 Nov 2014 (Local Time) from EGSH Reporting Station
Moderate Fog Moderate Fog  
Wind Chill: -1°   Ceiling: Unl
Heat Index: -1°   Visibility: 0.15mi
Dew Point: -1°   Wind: 2mph
Humidity: 100%   Direction: 230°SW
Pressure: 30.33"   Gusts: NA
Location:  52.57°N, 1.11°E
Report Text: EGSH 250050Z AUTO 23002KT 0250 FZFG SCT001/// M01/M01 Q1027
Loading
Personal Weather Stations






























Interactive Weather Map New forecast layout! Learn more

10-Day Weather Forecast

Advertisements
Track Severe Weather on mobile